Time;durP1;ratioP1;P1;durP2;ratioP2;P2;SDS_P1;SDS_P2;PMS_P1;PMS_P2;Temp;Humidity;BMP_temperature;BMP_pressure;BME280_temperature;BME280_humidity;BME280_pressure;Samples;Min_cycle;Max_cycle;Signal;HPM_P1;HPM_P2
2022/03/09 00:02:12;;;;;;;1.35;0.68;;;;;;;19.50;27.52;101737.81;5070806;28;20033;-75
2022/03/09 00:04:38;;;;;;;2.50;1.08;;;;;;;19.47;27.83;101735.56;5055307;28;20500;-76
2022/03/09 00:07:05;;;;;;;1.70;0.90;;;;;;;19.46;27.78;101734.75;5057927;28;20025;-75
2022/03/09 00:09:31;;;;;;;2.30;0.98;;;;;;;19.36;28.25;101739.97;5075355;28;20029;-75
2022/03/09 00:11:57;;;;;;;1.35;0.73;;;;;;;19.34;27.69;101730.44;5073562;28;20025;-76
2022/03/09 00:14:23;;;;;;;2.97;0.90;;;;;;;19.25;27.72;101725.38;5054555;28;20025;-76
2022/03/09 00:16:50;;;;;;;2.63;0.90;;;;;;;19.19;28.37;101726.34;5070809;28;20025;-76
2022/03/09 00:19:17;;;;;;;2.53;0.75;;;;;;;19.13;28.45;101724.63;5054964;28;20439;-76
2022/03/09 00:21:43;;;;;;;1.58;0.77;;;;;;;19.07;29.40;101719.34;5053616;28;20039;-76
2022/03/09 00:24:09;;;;;;;4.72;0.88;;;;;;;19.00;29.34;101722.19;5054353;28;20035;-76
2022/03/09 00:26:36;;;;;;;1.60;1.10;;;;;;;18.96;29.64;101718.31;5070221;28;20341;-74
2022/03/09 00:29:02;;;;;;;2.58;1.00;;;;;;;18.95;29.28;101722.09;5069752;28;20044;-74
2022/03/09 00:31:28;;;;;;;5.35;1.00;;;;;;;18.85;29.69;101721.88;5073648;28;20416;-74
2022/03/09 00:33:55;;;;;;;3.65;1.20;;;;;;;18.72;30.28;101723.78;5073700;28;20374;-74
2022/03/09 00:36:21;;;;;;;2.50;0.77;;;;;;;18.72;29.84;101733.81;5072749;28;20020;-74
2022/03/09 00:38:47;;;;;;;2.42;0.90;;;;;;;18.55;31.77;101730.97;5067438;28;20016;-74
2022/03/09 00:41:14;;;;;;;2.53;0.90;;;;;;;18.35;31.88;101739.47;5069597;28;20650;-74
2022/03/09 00:43:41;;;;;;;2.97;1.20;;;;;;;18.41;31.08;101737.69;5067859;28;20029;-74
2022/03/09 00:46:28;;;;;;;2.15;0.88;;;;;;;18.27;31.32;101741.72;5067231;28;20030;-75
2022/03/09 00:48:54;;;;;;;2.38;0.93;;;;;;;18.16;32.63;101730.63;5025954;28;20041;-73
2022/03/09 00:51:20;;;;;;;3.22;0.90;;;;;;;18.13;32.31;101725.66;5032889;28;20112;-74
2022/03/09 00:53:47;;;;;;;2.58;0.80;;;;;;;18.01;32.73;101732.97;5033819;28;20103;-74
2022/03/09 00:56:14;;;;;;;1.00;0.90;;;;;;;17.96;33.07;101729.31;5020914;28;20387;-74
2022/03/09 00:58:41;;;;;;;2.83;1.30;;;;;;;17.78;34.63;101725.63;5026251;28;20533;-73
2022/03/09 01:01:10;;;;;;;2.30;1.05;;;;;;;17.75;33.99;101728.78;5021868;28;20046;-75
2022/03/09 01:03:38;;;;;;;5.28;1.10;;;;;;;17.56;34.18;101722.59;5025093;28;20100;-74
2022/03/09 01:06:04;;;;;;;3.90;1.35;;;;;;;17.58;34.18;101717.78;5018965;28;20033;-74
2022/03/09 01:08:31;;;;;;;3.50;1.15;;;;;;;17.49;35.01;101719.16;5035880;28;20340;-75
2022/03/09 01:10:57;;;;;;;1.60;0.82;;;;;;;17.42;34.89;101711.13;5017217;28;20029;-75
2022/03/09 01:13:23;;;;;;;2.30;0.70;;;;;;;17.23;35.89;101719.53;5033187;28;20037;-77
2022/03/09 01:15:50;;;;;;;2.40;0.88;;;;;;;17.27;35.01;101709.91;5033534;28;20028;-76
2022/03/09 01:18:16;;;;;;;3.95;1.10;;;;;;;17.11;36.03;101712.19;5015649;28;20438;-77
2022/03/09 01:20:42;;;;;;;2.05;0.88;;;;;;;16.84;37.80;101697.34;5034177;28;20033;-77
2022/03/09 01:23:09;;;;;;;1.75;0.70;;;;;;;16.76;33.58;101706.56;5045319;28;20026;-77
2022/03/09 01:25:55;;;;;;;3.30;1.30;;;;;;;16.61;37.02;101698.81;5056271;28;20048;-77
2022/03/09 01:28:21;;;;;;;2.55;0.93;;;;;;;16.68;36.35;101696.03;5006724;28;20053;-77
2022/03/09 01:30:47;;;;;;;3.53;0.93;;;;;;;16.69;36.15;101691.47;5023930;28;20049;-77
2022/03/09 01:33:14;;;;;;;5.40;1.38;;;;;;;16.66;36.03;101686.50;5014443;28;20030;-77
2022/03/09 01:35:40;;;;;;;2.58;1.05;;;;;;;16.53;35.77;101684.78;5016828;28;20052;-77
2022/03/09 01:38:06;;;;;;;3.67;1.17;;;;;;;16.22;33.50;101683.88;4998563;28;20037;-77
2022/03/09 01:40:33;;;;;;;3.70;0.88;;;;;;;16.18;32.83;101679.94;5007845;28;20534;-77
2022/03/09 01:42:59;;;;;;;1.80;1.02;;;;;;;16.25;32.53;101674.47;5016485;28;20029;-77
2022/03/09 01:45:25;;;;;;;2.83;1.15;;;;;;;16.09;35.58;101670.47;4998178;28;20491;-77
2022/03/09 01:47:51;;;;;;;3.78;1.27;;;;;;;16.06;35.13;101671.75;5015064;28;20052;-76
2022/03/09 01:50:18;;;;;;;3.33;1.33;;;;;;;15.88;35.86;101674.41;4997695;28;20053;-76
2022/03/09 01:52:44;;;;;;;3.70;1.20;;;;;;;15.90;35.24;101672.31;5015053;28;20539;-76
2022/03/09 01:55:11;;;;;;;2.42;1.08;;;;;;;15.81;36.37;101670.91;4997500;28;20045;-76
2022/03/09 01:57:37;;;;;;;4.00;1.30;;;;;;;15.69;37.38;101675.38;5013616;28;20092;-77
2022/03/09 02:00:05;;;;;;;3.95;0.90;;;;;;;15.53;37.61;101668.63;4995958;28;20041;-77
2022/03/09 02:02:31;;;;;;;3.20;1.00;;;;;;;15.54;37.82;101664.88;5000275;28;20052;-76
2022/03/09 02:04:57;;;;;;;3.58;1.00;;;;;;;15.40;37.95;101671.41;5025422;28;20042;-76
2022/03/09 02:09:41;;;;;;;4.07;1.73;;;;;;;15.23;38.70;101668.41;5092403;28;20028;-76
2022/03/09 02:10:10;;;;;;;4.90;1.23;;;;;;;15.23;38.50;101671.09;5087355;28;20466;-76
2022/03/09 02:12:37;;;;;;;4.40;1.60;;;;;;;15.07;38.84;101671.63;5075577;28;20024;-76
2022/03/09 02:15:04;;;;;;;3.53;1.35;;;;;;;15.03;38.99;101658.53;5075492;28;20029;-76
2022/03/09 02:17:31;;;;;;;3.55;1.45;;;;;;;14.87;39.59;101667.13;5092871;28;20107;-77
2022/03/09 02:19:58;;;;;;;2.40;1.27;;;;;;;14.70;40.29;101661.38;5077500;28;20461;-77
2022/03/09 02:22:35;;;;;;;4.03;1.30;;;;;;;14.55;40.92;101657.28;5074142;28;20033;-77
2022/03/09 02:25:04;;;;;;;3.53;1.33;;;;;;;14.39;41.66;101656.72;5075901;28;20020;-78
2022/03/09 02:27:30;;;;;;;5.47;1.58;;;;;;;14.40;41.42;101650.28;5090069;28;20185;-79
2022/03/09 02:29:56;;;;;;;3.22;1.30;;;;;;;14.23;41.54;101643.69;5076128;28;20515;-79
2022/03/09 02:32:23;;;;;;;4.93;1.67;;;;;;;14.11;42.23;101640.81;5091318;28;20070;-79
2022/03/09 02:34:50;;;;;;;4.93;1.52;;;;;;;14.05;42.42;101646.19;5076263;28;20024;-78
2022/03/09 02:37:17;;;;;;;5.78;1.40;;;;;;;13.99;42.51;101637.09;5074790;28;20020;-78
2022/03/09 02:39:43;;;;;;;9.43;1.70;;;;;;;13.93;42.79;101629.84;5063396;28;20025;-78
2022/03/09 02:42:10;;;;;;;13.93;2.72;;;;;;;13.84;43.19;101628.44;5059693;28;20040;-78
2022/03/09 02:44:37;;;;;;;3.55;1.67;;;;;;;13.65;44.07;101613.94;5075427;28;20035;-77
2022/03/09 02:47:05;;;;;;;6.40;1.65;;;;;;;13.63;44.15;101626.78;5074336;28;20025;-77
2022/03/09 02:49:31;;;;;;;4.90;1.40;;;;;;;13.49;44.43;101625.94;5070083;28;20047;-77
2022/03/09 02:51:58;;;;;;;12.10;2.25;;;;;;;13.38;45.24;101630.09;5069016;28;20103;-78
2022/03/09 02:54:24;;;;;;;7.53;1.70;;;;;;;13.22;46.29;101630.47;5069426;28;20043;-78
2022/03/09 02:56:51;;;;;;;11.85;2.40;;;;;;;12.83;47.96;101623.94;5058913;28;20099;-77
2022/03/09 02:59:17;;;;;;;7.22;1.65;;;;;;;12.90;47.68;101635.53;5068814;28;20120;-77
2022/03/09 03:01:43;;;;;;;4.60;2.08;;;;;;;12.73;48.55;101628.03;5068253;28;20052;-77
2022/03/09 03:04:09;;;;;;;9.95;2.75;;;;;;;12.76;48.68;101635.66;5067959;28;20025;-76
2022/03/09 03:06:35;;;;;;;6.90;2.58;;;;;;;12.60;49.83;101632.31;5075402;28;20099;-78
2022/03/09 03:09:02;;;;;;;9.73;2.92;;;;;;;12.41;51.99;101631.19;5068891;28;20528;-74
2022/03/09 03:11:28;;;;;;;15.35;3.63;;;;;;;12.19;53.60;101628.78;5069408;28;20024;-74
2022/03/09 03:13:54;;;;;;;11.65;3.35;;;;;;;12.00;55.29;101630.31;5069894;28;20063;-74
2022/03/09 03:16:20;;;;;;;9.18;2.60;;;;;;;12.07;54.24;101633.88;5067182;28;20024;-74
2022/03/09 03:18:46;;;;;;;10.50;2.95;;;;;;;11.90;54.82;101641.41;5070829;28;20040;-74
2022/03/09 03:21:13;;;;;;;19.35;4.00;;;;;;;11.69;56.06;101641.41;5072742;28;20469;-73
2022/03/09 03:23:39;;;;;;;11.45;2.80;;;;;;;11.70;56.05;101640.38;5071305;28;20020;-72
2022/03/09 03:26:06;;;;;;;14.10;3.15;;;;;;;11.41;57.11;101652.06;5071056;28;20483;-72
2022/03/09 03:28:33;;;;;;;12.73;3.20;;;;;;;11.39;56.36;101651.44;5080035;28;20089;-78
2022/03/09 03:30:59;;;;;;;13.73;3.47;;;;;;;11.20;57.25;101648.34;5099223;28;20085;-78
2022/03/09 03:33:25;;;;;;;11.73;3.15;;;;;;;11.29;56.82;101646.41;5079179;28;20040;-78
2022/03/09 03:35:52;;;;;;;16.05;3.50;;;;;;;11.16;57.42;101644.41;5078121;28;20099;-78
2022/03/09 03:38:19;;;;;;;20.88;4.30;;;;;;;11.00;59.03;101645.47;5077996;28;20027;-78
2022/03/09 03:40:45;;;;;;;14.75;3.97;;;;;;;10.96;58.58;101648.72;5070585;28;20052;-78
2022/03/09 03:43:11;;;;;;;15.57;3.28;;;;;;;10.88;59.59;101646.97;5074517;28;20086;-78
2022/03/09 03:45:38;;;;;;;16.58;3.70;;;;;;;10.82;59.63;101643.19;5077877;28;20059;-78
2022/03/09 03:48:04;;;;;;;10.07;3.47;;;;;;;10.71;60.28;101649.03;5077051;28;20070;-78
2022/03/09 03:50:31;;;;;;;10.77;2.95;;;;;;;10.81;59.25;101656.78;5075175;28;20036;-79
2022/03/09 03:52:57;;;;;;;11.88;3.63;;;;;;;10.81;59.38;101662.97;5075109;28;20115;-78
2022/03/09 03:55:23;;;;;;;10.20;3.38;;;;;;;10.79;59.43;101664.19;5065493;28;20059;-78
2022/03/09 03:57:49;;;;;;;16.55;3.90;;;;;;;10.65;60.18;101656.97;5076132;28;20032;-78
2022/03/09 04:00:16;;;;;;;11.43;3.13;;;;;;;10.60;59.91;101662.88;5076190;28;20119;-78
2022/03/09 04:02:42;;;;;;;13.43;3.63;;;;;;;10.59;60.15;101661.22;5077529;28;20036;-78
2022/03/09 04:05:09;;;;;;;15.00;3.50;;;;;;;10.44;60.49;101653.22;5074014;28;20029;-78
2022/03/09 04:07:36;;;;;;;14.43;3.33;;;;;;;10.50;59.32;101659.69;5069536;28;20093;-78
2022/03/09 04:10:03;;;;;;;10.55;3.00;;;;;;;10.53;58.44;101659.31;5074320;28;20400;-78
2022/03/09 04:12:29;;;;;;;16.40;3.65;;;;;;;10.56;57.95;101658.94;5059284;28;20032;-78
2022/03/09 04:14:56;;;;;;;15.40;3.40;;;;;;;10.67;58.26;101658.47;5073827;28;20107;-78
2022/03/09 04:17:22;;;;;;;11.85;3.03;;;;;;;10.37;59.78;101648.78;5067478;28;20021;-78
2022/03/09 04:19:49;;;;;;;11.05;3.95;;;;;;;10.26;59.57;101652.75;5079888;28;20027;-78
2022/03/09 04:22:15;;;;;;;14.07;2.78;;;;;;;10.44;58.41;101649.72;5084944;28;20362;-78
2022/03/09 04:24:41;;;;;;;12.40;3.55;;;;;;;10.39;58.82;101646.78;5074254;28;20098;-78
2022/03/09 04:27:07;;;;;;;10.65;3.33;;;;;;;10.34;59.04;101650.00;5074856;28;20070;-78
2022/03/09 04:29:34;;;;;;;14.48;3.28;;;;;;;10.18;59.39;101656.31;5081513;28;20024;-78
2022/03/09 04:32:00;;;;;;;18.15;3.33;;;;;;;10.25;59.46;101662.63;5078339;28;20027;-78
2022/03/09 04:34:26;;;;;;;17.27;3.75;;;;;;;10.22;59.75;101664.81;5078421;28;20032;-78
2022/03/09 04:36:52;;;;;;;16.70;4.18;;;;;;;10.35;59.18;101665.03;5077797;28;20013;-78
2022/03/09 04:39:18;;;;;;;13.73;3.00;;;;;;;10.17;59.98;101665.38;5077460;28;20031;-78
2022/03/09 04:41:45;;;;;;;13.40;3.28;;;;;;;9.89;61.89;101659.78;5075641;28;20036;-78
2022/03/09 04:44:11;;;;;;;20.17;3.83;;;;;;;9.81;62.01;101675.06;5076322;28;20067;-79
2022/03/09 04:46:37;;;;;;;19.40;4.13;;;;;;;9.74;62.08;101677.63;5077855;28;20099;-78
2022/03/09 04:49:03;;;;;;;10.20;3.03;;;;;;;9.88;61.22;101676.00;5078142;28;20024;-78
2022/03/09 04:51:29;;;;;;;19.38;3.47;;;;;;;9.70;62.43;101687.84;5083934;28;20060;-78
2022/03/09 04:53:55;;;;;;;16.80;3.60;;;;;;;9.85;60.83;101684.41;5065703;28;20446;-78
2022/03/09 04:56:22;;;;;;;13.43;3.65;;;;;;;9.79;61.08;101677.94;5087470;28;20453;-78
2022/03/09 04:58:48;;;;;;;15.07;3.33;;;;;;;9.83;61.17;101679.25;5092888;28;20024;-78
2022/03/09 05:01:14;;;;;;;16.10;3.47;;;;;;;9.79;61.08;101681.44;5076770;28;20135;-78
2022/03/09 05:03:40;;;;;;;10.88;3.08;;;;;;;9.71;61.67;101681.47;5071628;28;20032;-78
2022/03/09 05:06:06;;;;;;;16.20;3.42;;;;;;;9.64;61.62;101671.69;5076562;28;20090;-78
2022/03/09 05:08:34;;;;;;;9.85;3.58;;;;;;;9.61;61.52;101670.22;5072630;28;20024;-78
2022/03/09 05:11:00;;;;;;;16.38;4.13;;;;;;;9.54;61.72;101666.59;5074560;28;20035;-78
2022/03/09 05:13:26;;;;;;;12.95;4.15;;;;;;;9.42;61.88;101668.03;5079312;28;20028;-79
2022/03/09 05:15:52;;;;;;;13.90;4.43;;;;;;;9.42;61.65;101676.03;5078618;28;20095;-78
2022/03/09 05:18:19;;;;;;;17.85;4.20;;;;;;;9.40;61.84;101673.56;5078123;28;20025;-78
2022/03/09 05:20:47;;;;;;;12.95;3.50;;;;;;;9.45;61.68;101665.84;5079695;28;20078;-78
2022/03/09 05:23:13;;;;;;;20.85;4.50;;;;;;;9.48;61.17;101669.97;5096467;28;20047;-78
2022/03/09 05:25:39;;;;;;;13.63;3.20;;;;;;;9.46;60.97;101662.16;5082281;28;20067;-78
2022/03/09 05:28:06;;;;;;;18.13;3.95;;;;;;;9.33;61.83;101650.38;5077148;28;20046;-78
2022/03/09 05:30:32;;;;;;;10.18;3.35;;;;;;;9.18;63.00;101653.00;5071584;28;20051;-78
2022/03/09 05:32:58;;;;;;;15.90;3.58;;;;;;;9.34;61.58;101660.06;5075465;28;20024;-78
2022/03/09 05:35:24;;;;;;;13.85;2.85;;;;;;;9.29;61.61;101662.44;5078142;28;20450;-78
2022/03/09 05:37:51;;;;;;;9.65;3.13;;;;;;;9.11;62.96;101660.06;5077777;28;20044;-78
2022/03/09 05:40:17;;;;;;;12.70;3.13;;;;;;;9.17;62.21;101654.84;5078075;28;20024;-78
2022/03/09 05:42:44;;;;;;;12.85;3.35;;;;;;;9.26;61.86;101661.78;5071430;28;20036;-78
2022/03/09 05:45:11;;;;;;;14.88;3.63;;;;;;;9.36;61.42;101660.72;5080610;28;20035;-78
2022/03/09 05:47:37;;;;;;;10.77;3.55;;;;;;;9.21;62.03;101669.47;5077244;28;20043;-72
2022/03/09 05:50:04;;;;;;;15.13;3.75;;;;;;;9.24;62.01;101674.50;5070644;28;20086;-72
2022/03/09 05:52:30;;;;;;;12.43;3.58;;;;;;;9.07;62.82;101688.94;5072948;28;20090;-72
2022/03/09 05:54:56;;;;;;;21.05;3.67;;;;;;;9.15;62.65;101688.88;5088791;28;20484;-72
2022/03/09 05:57:23;;;;;;;15.15;3.65;;;;;;;9.21;63.58;101679.34;5076393;28;20104;-75
2022/03/09 05:59:49;;;;;;;15.23;3.45;;;;;;;9.13;63.36;101682.06;5082618;28;20464;-74
2022/03/09 06:02:16;;;;;;;12.00;3.45;;;;;;;9.16;63.30;101671.88;5070201;28;20040;-74
2022/03/09 06:04:48;;;;;;;15.70;3.38;;;;;;;9.30;62.46;101672.13;5073901;28;20354;-74
2022/03/09 06:07:14;;;;;;;16.35;3.65;;;;;;;9.22;62.83;101667.66;5071995;28;20017;-75
2022/03/09 06:09:41;;;;;;;15.50;3.95;;;;;;;9.28;62.86;101671.47;5067306;28;20074;-75
2022/03/09 06:12:08;;;;;;;14.15;4.30;;;;;;;9.21;62.91;101657.97;5092108;28;20419;-75
2022/03/09 06:14:34;;;;;;;13.48;3.67;;;;;;;9.22;62.74;101662.34;5069488;28;20024;-75
2022/03/09 06:17:00;;;;;;;16.38;3.22;;;;;;;9.16;63.04;101660.34;5074936;28;20169;-75
2022/03/09 06:19:26;;;;;;;17.30;3.97;;;;;;;9.08;63.44;101655.06;5075734;28;20037;-75
2022/03/09 06:21:53;;;;;;;15.43;3.85;;;;;;;9.06;64.07;101655.25;5075738;28;20107;-75
2022/03/09 06:24:19;;;;;;;17.48;4.03;;;;;;;9.11;63.38;101658.22;5075348;28;20040;-75
2022/03/09 06:26:45;;;;;;;16.13;3.60;;;;;;;8.99;64.40;101648.91;5075436;28;20119;-75
2022/03/09 06:29:12;;;;;;;12.50;3.40;;;;;;;8.99;64.88;101651.59;5074587;28;20060;-75
2022/03/09 06:31:39;;;;;;;21.70;4.10;;;;;;;8.94;65.24;101656.66;5075364;28;20028;-74
2022/03/09 06:34:06;;;;;;;15.07;3.97;;;;;;;8.87;65.73;101656.50;5075337;28;20032;-74
2022/03/09 06:36:32;;;;;;;17.05;3.95;;;;;;;8.85;65.66;101657.69;5078704;28;20055;-75
2022/03/09 06:38:59;;;;;;;15.90;4.00;;;;;;;8.99;65.31;101659.59;5084647;28;20062;-74
2022/03/09 06:41:25;;;;;;;23.42;4.07;;;;;;;9.10;64.57;101645.03;5071573;28;20021;-74
2022/03/09 06:43:51;;;;;;;25.92;4.30;;;;;;;9.08;64.68;101647.88;5073941;28;20113;-74
2022/03/09 06:46:22;;;;;;;14.30;3.35;;;;;;;8.90;65.89;101650.00;5072185;28;20028;-74
2022/03/09 06:48:49;;;;;;;21.40;3.35;;;;;;;8.83;65.74;101646.34;5074478;28;20028;-74
2022/03/09 06:51:15;;;;;;;20.13;3.50;;;;;;;8.80;66.53;101644.03;5078129;28;20056;-74
2022/03/09 06:53:43;;;;;;;20.58;4.35;;;;;;;8.82;65.80;101647.34;5070899;28;20034;-77
2022/03/09 06:56:09;;;;;;;17.67;3.78;;;;;;;8.86;65.28;101654.00;5073158;28;20029;-75
2022/03/09 06:58:35;;;;;;;10.57;2.90;;;;;;;8.72;66.34;101648.41;5071744;28;20094;-74
2022/03/09 07:01:01;;;;;;;16.92;2.95;;;;;;;8.73;65.90;101641.25;5070536;28;20039;-74
2022/03/09 07:03:28;;;;;;;14.48;3.53;;;;;;;8.70;65.99;101641.56;5070185;28;20021;-74
2022/03/09 07:05:54;;;;;;;15.55;3.47;;;;;;;8.62;66.17;101642.44;5069087;28;20051;-74
2022/03/09 07:08:20;;;;;;;10.05;3.38;;;;;;;8.64;66.02;101648.44;5072283;28;20097;-76
2022/03/09 07:10:46;;;;;;;16.23;3.55;;;;;;;8.55;66.69;101641.50;5073366;28;20031;-76
2022/03/09 07:13:13;;;;;;;20.70;4.38;;;;;;;8.63;66.74;101644.13;5068519;28;20024;-76
2022/03/09 07:15:39;;;;;;;18.25;4.43;;;;;;;8.67;66.65;101640.09;5081144;28;20075;-75
2022/03/09 07:18:05;;;;;;;13.82;3.63;;;;;;;8.63;66.87;101645.94;5080681;28;20036;-77
2022/03/09 07:20:31;;;;;;;18.73;4.30;;;;;;;8.56;66.81;101639.66;5074971;28;20112;-77
2022/03/09 07:22:58;;;;;;;13.77;4.28;;;;;;;8.56;66.88;101647.66;5073765;28;20430;-76
2022/03/09 07:25:24;;;;;;;16.23;4.22;;;;;;;8.35;68.45;101645.53;5074271;28;20028;-76
2022/03/09 07:27:50;;;;;;;16.98;4.30;;;;;;;8.34;68.16;101634.03;5074476;28;20028;-76
2022/03/09 07:30:16;;;;;;;16.75;3.80;;;;;;;8.37;67.94;101638.19;5073243;28;20036;-76
2022/03/09 07:32:43;;;;;;;14.55;3.47;;;;;;;8.39;67.66;101633.53;5072520;28;20039;-76
2022/03/09 07:35:09;;;;;;;14.82;3.65;;;;;;;8.37;67.83;101630.19;5074046;28;20335;-75
2022/03/09 07:37:36;;;;;;;21.95;3.83;;;;;;;8.30;68.17;101630.03;5073932;28;20154;-76
2022/03/09 07:40:07;;;;;;;19.80;3.60;;;;;;;8.29;68.15;101628.38;5073897;28;20043;-76
2022/03/09 07:42:33;;;;;;;16.27;3.53;;;;;;;8.31;68.33;101631.69;5071410;28;20032;-76
2022/03/09 07:45:00;;;;;;;17.65;3.95;;;;;;;8.30;68.56;101634.53;5073159;28;20095;-75
2022/03/09 07:47:27;;;;;;;16.63;3.80;;;;;;;8.19;69.09;101628.56;5072228;28;20420;-74
2022/03/09 07:49:53;;;;;;;17.33;4.68;;;;;;;8.32;68.79;101628.00;5072586;28;20032;-74
2022/03/09 07:52:19;;;;;;;13.25;3.80;;;;;;;8.28;68.61;101628.56;5073556;28;20084;-74
2022/03/09 07:54:46;;;;;;;18.80;3.90;;;;;;;8.26;68.67;101631.38;5073376;28;20569;-74
2022/03/09 07:57:12;;;;;;;17.75;3.85;;;;;;;8.20;68.93;101634.72;5073527;28;20133;-74
2022/03/09 07:59:38;;;;;;;14.75;3.50;;;;;;;8.20;68.86;101630.22;5073337;28;20031;-74
2022/03/09 08:02:04;;;;;;;21.50;4.07;;;;;;;8.17;68.87;101638.56;5072194;28;20438;-74
2022/03/09 08:04:31;;;;;;;15.35;3.72;;;;;;;8.15;68.64;101645.91;5072541;28;20454;-75
2022/03/09 08:06:57;;;;;;;15.68;3.80;;;;;;;8.13;68.55;101637.25;5073559;28;20020;-75
2022/03/09 08:09:23;;;;;;;11.48;3.78;;;;;;;8.15;68.95;101634.41;5073455;28;20025;-74
2022/03/09 08:11:50;;;;;;;12.55;3.67;;;;;;;8.09;68.83;101627.91;5073628;28;20370;-74
2022/03/09 08:14:16;;;;;;;18.23;4.25;;;;;;;8.05;68.84;101631.94;5073365;28;20050;-74
2022/03/09 08:16:43;;;;;;;17.60;3.30;;;;;;;8.02;69.14;101629.59;5068392;28;20169;-74
2022/03/09 08:19:09;;;;;;;18.40;3.92;;;;;;;7.94;69.07;101625.13;5073652;28;20024;-74
2022/03/09 08:21:36;;;;;;;14.45;2.95;;;;;;;7.91;69.06;101628.13;5073364;28;20090;-75
2022/03/09 08:24:02;;;;;;;11.82;3.13;;;;;;;7.86;69.48;101629.63;5072473;28;20024;-74
2022/03/09 08:26:28;;;;;;;13.85;3.13;;;;;;;7.80;69.50;101632.97;5069387;28;20059;-74
2022/03/09 08:28:54;;;;;;;11.30;3.40;;;;;;;7.80;69.78;101643.63;5080668;28;20120;-74
2022/03/09 08:31:21;;;;;;;14.48;3.25;;;;;;;7.76;69.50;101634.31;5090392;28;20024;-74
2022/03/09 08:33:47;;;;;;;8.93;3.42;;;;;;;7.72;69.76;101638.28;5075294;28;20029;-74
2022/03/09 08:36:13;;;;;;;17.02;3.95;;;;;;;7.67;69.75;101625.50;5071649;28;20111;-74
2022/03/09 08:38:40;;;;;;;20.85;3.67;;;;;;;7.61;70.24;101624.34;5071484;28;20047;-74
2022/03/09 08:41:06;;;;;;;20.52;4.30;;;;;;;7.69;70.48;101631.47;5078493;28;20028;-73
2022/03/09 08:43:32;;;;;;;13.57;3.55;;;;;;;7.63;70.30;101629.50;5068606;28;20288;-74
2022/03/09 08:45:58;;;;;;;19.10;3.63;;;;;;;7.61;70.34;101632.31;5088872;28;20024;-74
2022/03/09 08:48:27;;;;;;;22.70;3.88;;;;;;;7.62;70.14;101631.31;5072227;28;20037;-76
2022/03/09 08:50:54;;;;;;;19.92;3.80;;;;;;;7.59;70.30;101634.31;5076446;28;20019;-76
2022/03/09 08:53:21;;;;;;;13.93;3.80;;;;;;;7.59;70.23;101638.81;5083115;28;20100;-76
2022/03/09 08:55:48;;;;;;;17.42;3.50;;;;;;;7.58;70.17;101643.31;5078095;28;20510;-76
2022/03/09 08:58:15;;;;;;;18.58;3.58;;;;;;;7.51;70.05;101639.66;5073213;28;20039;-76
2022/03/09 09:00:42;;;;;;;10.25;2.90;;;;;;;7.49;70.19;101638.97;5079578;28;20507;-77
2022/03/09 09:03:09;;;;;;;10.98;3.28;;;;;;;7.46;70.05;101633.16;5078939;28;20508;-77
2022/03/09 09:05:35;;;;;;;13.45;3.40;;;;;;;7.44;69.85;101644.00;5081716;28;20028;-76
2022/03/09 09:08:01;;;;;;;15.27;3.63;;;;;;;7.42;69.96;101637.97;5073646;28;20100;-77
2022/03/09 09:10:27;;;;;;;11.75;2.88;;;;;;;7.37;69.67;101630.47;5085408;28;20036;-76
2022/03/09 09:12:57;;;;;;;16.85;3.53;;;;;;;7.36;69.63;101638.63;5075715;28;20020;-77
2022/03/09 09:15:24;;;;;;;14.43;3.17;;;;;;;7.32;69.84;101642.63;5063308;28;20458;-78
2022/03/09 09:18:00;;;;;;;13.00;3.08;;;;;;;7.26;69.68;101643.28;5076455;28;20389;-76
2022/03/09 09:20:28;;;;;;;11.05;2.38;;;;;;;7.19;69.66;101643.13;5077834;28;20066;-75
2022/03/09 09:22:55;;;;;;;12.38;3.17;;;;;;;7.12;70.05;101631.47;5056041;28;20048;-77
2022/03/09 09:25:25;;;;;;;10.82;3.03;;;;;;;7.10;70.58;101628.94;5073747;28;20158;-76
2022/03/09 09:27:53;;;;;;;11.57;2.75;;;;;;;7.10;71.04;101631.59;5081770;28;20457;-76
2022/03/09 09:30:20;;;;;;;17.58;3.92;;;;;;;7.08;71.14;101628.28;5076392;28;20032;-76
2022/03/09 09:32:47;;;;;;;16.25;3.63;;;;;;;7.09;70.97;101632.59;5075598;28;20454;-75
2022/03/09 09:35:14;;;;;;;14.77;3.17;;;;;;;7.06;71.50;101627.63;5085027;28;20028;-75
2022/03/09 09:37:41;;;;;;;16.77;4.05;;;;;;;7.07;71.32;101625.78;5075341;28;20039;-76
2022/03/09 09:40:09;;;;;;;16.58;3.80;;;;;;;7.08;70.95;101620.28;5089658;28;20035;-75
2022/03/09 09:42:37;;;;;;;11.10;3.03;;;;;;;7.07;71.07;101618.63;5077067;28;20024;-76
2022/03/09 09:45:04;;;;;;;13.20;3.25;;;;;;;7.02;71.31;101607.66;5071720;28;20033;-75
2022/03/09 09:47:32;;;;;;;14.63;3.88;;;;;;;6.99;71.57;101599.97;5080092;28;20121;-76
2022/03/09 09:49:58;;;;;;;13.90;3.13;;;;;;;6.90;72.00;101600.16;5075765;28;20044;-75
2022/03/09 09:52:26;;;;;;;17.35;3.50;;;;;;;6.93;71.70;101595.31;5082464;28;20024;-76
2022/03/09 09:54:55;;;;;;;14.75;3.53;;;;;;;6.91;72.06;101604.47;5072814;28;20048;-75
2022/03/09 09:57:22;;;;;;;15.65;3.17;;;;;;;6.90;72.17;101606.28;5079217;28;20416;-76
2022/03/09 09:59:50;;;;;;;15.52;3.67;;;;;;;6.92;71.79;101614.94;5072659;28;20033;-75
2022/03/09 10:02:17;;;;;;;23.42;3.75;;;;;;;6.90;71.65;101616.13;5074958;28;20445;-77
2022/03/09 10:04:44;;;;;;;13.07;2.83;;;;;;;6.85;71.79;101620.09;5076560;28;20341;-76
2022/03/09 10:07:11;;;;;;;11.23;2.90;;;;;;;6.84;71.69;101621.09;5075186;28;20105;-76
2022/03/09 10:09:39;;;;;;;16.60;3.97;;;;;;;6.61;72.60;101628.84;5075472;28;20040;-76
2022/03/09 10:12:06;;;;;;;14.93;3.30;;;;;;;6.67;72.17;101616.72;5074413;28;20025;-77
2022/03/09 10:14:53;;;;;;;11.38;2.97;;;;;;;6.66;72.08;101619.50;5074719;28;20106;-77
2022/03/09 10:17:22;;;;;;;11.15;3.25;;;;;;;6.52;72.16;101623.63;5074841;28;20429;-76
2022/03/09 10:19:55;;;;;;;14.27;2.95;;;;;;;6.40;72.78;101614.28;5075773;28;20370;-76
2022/03/09 10:22:34;;;;;;;18.55;4.00;;;;;;;6.32;73.47;101615.06;5075626;28;20028;-76
2022/03/09 10:25:02;;;;;;;16.17;3.05;;;;;;;6.31;73.47;101614.22;5058972;28;20025;-76
2022/03/09 10:27:36;;;;;;;10.80;3.00;;;;;;;6.29;73.35;101618.88;5074650;28;20024;-76
2022/03/09 10:30:07;;;;;;;12.45;3.30;;;;;;;6.26;73.39;101616.53;5075453;28;20020;-76
2022/03/09 10:32:54;;;;;;;12.80;2.90;;;;;;;6.27;73.38;101612.91;5075191;28;20048;-76
2022/03/09 10:35:32;;;;;;;9.98;3.00;;;;;;;6.21;73.30;101631.28;5074828;28;20028;-77
2022/03/09 10:38:03;;;;;;;9.48;3.03;;;;;;;6.06;73.84;101637.22;5075824;28;20035;-77
2022/03/09 10:40:31;;;;;;;11.98;3.15;;;;;;;6.06;73.63;101639.03;5075613;28;20522;-77
2022/03/09 10:43:12;;;;;;;13.25;3.25;;;;;;;6.00;73.87;101645.81;5075068;28;20039;-77
2022/03/09 10:46:10;;;;;;;15.10;3.35;;;;;;;5.95;74.23;101640.13;5091203;28;20029;-77
2022/03/09 10:49:01;;;;;;;12.68;3.05;;;;;;;5.92;74.26;101648.41;5074858;28;20032;-74
2022/03/09 10:51:35;;;;;;;10.35;2.50;;;;;;;5.92;74.25;101653.72;5074916;28;20108;-74
2022/03/09 10:54:06;;;;;;;14.40;3.25;;;;;;;5.83;74.60;101638.69;5075384;28;20099;-74
2022/03/09 10:56:53;;;;;;;15.73;4.13;;;;;;;5.81;74.43;101641.47;5056385;28;20435;-74
2022/03/09 10:59:24;;;;;;;10.60;2.55;;;;;;;5.82;74.64;101637.81;5038955;28;20036;-74
2022/03/09 11:02:10;;;;;;;17.00;2.97;;;;;;;5.79;75.05;101642.63;5057509;28;20347;-74
2022/03/09 11:04:38;;;;;;;8.15;2.67;;;;;;;5.67;75.43;101647.38;5059931;28;20056;-74
2022/03/09 11:07:04;;;;;;;14.57;3.78;;;;;;;5.56;76.26;101639.63;5044205;28;20064;-73
2022/03/09 11:09:31;;;;;;;13.80;3.03;;;;;;;5.62;76.12;101646.16;5024211;28;20035;-76
2022/03/09 11:11:58;;;;;;;9.52;2.78;;;;;;;5.61;76.42;101636.50;5046880;28;20043;-76
2022/03/09 11:14:29;;;;;;;12.25;3.05;;;;;;;5.59;75.97;101638.47;5039016;28;20894;-76
2022/03/09 11:17:00;;;;;;;16.73;2.88;;;;;;;5.59;76.22;101635.81;5052185;28;20087;-76
2022/03/09 11:19:27;;;;;;;15.20;3.30;;;;;;;5.60;76.06;101634.84;5041580;28;20237;-76
2022/03/09 11:21:53;;;;;;;11.48;2.88;;;;;;;5.62;75.80;101631.06;5055346;28;20098;-76
2022/03/09 11:24:20;;;;;;;9.55;2.47;;;;;;;5.56;75.92;101636.97;5051676;28;20366;-76
2022/03/09 11:26:56;;;;;;;16.50;3.05;;;;;;;5.42;76.66;101626.91;5033993;28;20029;-76